Terminal Aerodrome Forecast
Issued by NWS

Home | Current Version | Previous Version | Text Only | Print | Product List | Glossary Off
Versions: 1 2 3 4 5 6 7 8 9 10 11 12 13 14 15 16 17

000
FTUS43 KUNR 210737 AAA
TAFGCC
TAF AMD
KGCC 210737Z 2108/2206 33005KT P6SM SCT030 OVC070
      TEMPO 2108/2110 BKN030
     FM211500 30010KT P6SM BKN080=

USA.gov is the U.S. government's official web portal to all federal, state and local government web resources and services.